Latest Weather Observations for Truscott

IDD60801

Issued at 3:31 am CST Tuesday 21 February 2017 (issued every 30 minutes, with the page automatically refreshed every 10 minutes)

About weather observations | Map of weather stations | Latest weather observations for NT | Other Formats
Station Details ID: 001020 Name: TRUSCOTT Lat: -14.09 Lon: 126.39 Height: 51.0 m
Data from the previous 72 hours. | See also: Recent months at Truscott
Date/Time
CST
Temp
°C
App
Temp
°C
Dew
Point
°C
Rel
Hum
%
Delta-T
°C
Wind Press
QNH
hPa
Press
MSL
hPa
Rain since
9am
mm
Dir  Spd
km/h
Gust
km/h
Spd
kts
Gust
kts
21/03:30am 25.1 30.8 23.7 92 1.0 CALM 0 0 0 0 1008.9 - 1.2
21/03:00am 25.6 30.1 23.7 89 1.3 SSW 6 7 3 4 1009.2 1008.8 1.2
21/02:30am 25.6 30.5 24.4 93 0.8 SSW 6 7 3 4 1009.5 1009.1 1.2
21/02:00am 25.7 30.8 24.1 91 1.1 S 4 6 2 3 1009.6 1009.2 1.2
21/01:30am 25.9 30.7 24.1 90 1.2 S 6 9 3 5 1009.7 1009.3 1.2
21/01:00am 26.0 30.8 24.2 90 1.2 SSE 6 7 3 4 1010.1 1009.7 1.2
21/12:30am 26.7 31.5 24.2 86 1.7 SW 6 7 3 4 1010.4 1010.0 1.2
21/12:00am 26.8 31.4 24.1 85 1.9 SSW 7 9 4 5 1010.7 1010.3 1.2
 
Date/Time
CST
Temp
°C
App
Temp
°C
Dew
Point
°C
Rel
Hum
%
Delta-T
°C
Wind Press
QNH
hPa
Press
MSL
hPa
Rain since
9am
mm
Dir  Spd
km/h
Gust
km/h
Spd
kts
Gust
kts
20/11:30pm 26.7 31.2 24.0 85 1.9 WSW 7 9 4 5 1010.6 1010.2 1.0
20/11:00pm 26.7 30.6 23.6 83 2.1 SW 9 11 5 6 1010.7 1010.3 1.0
20/10:30pm 26.9 31.1 23.4 81 2.4 S 7 11 4 6 1010.4 1010.0 1.0
20/10:00pm 27.0 31.3 23.7 82 2.3 S 7 9 4 5 1010.3 1009.9 1.0
20/09:30pm 26.8 31.5 23.9 84 2.0 SSE 6 7 3 4 1010.0 1009.6 1.0
20/09:00pm 27.0 32.2 23.5 81 2.4 ESE 2 6 1 3 1009.7 1009.3 1.0
20/08:30pm 27.3 31.5 23.5 80 2.6 SW 7 9 4 5 1009.5 1009.1 1.0
20/08:00pm 27.4 31.6 23.4 79 2.7 S 7 11 4 6 1008.8 1008.4 1.0
20/07:30pm 27.9 31.3 23.3 76 3.2 SSW 11 15 6 8 1008.7 1008.3 1.0
20/07:00pm 27.7 32.2 23.9 80 2.6 SE 7 9 4 5 1008.2 1007.8 1.0
20/06:30pm 27.6 31.9 24.2 82 2.4 ENE 9 11 5 6 1007.5 1007.1 1.0
20/06:00pm 27.3 31.0 23.3 79 2.7 W 9 15 5 8 1007.1 1006.7 1.0
20/05:30pm 27.4 30.4 21.9 72 3.7 NW 9 15 5 8 1006.9 1006.5 1.0
20/05:00pm 27.6 31.1 22.8 75 3.3 ENE 9 15 5 8 1007.3 1006.9 1.0
20/04:55pm 27.7 30.3 22.6 74 3.5 ENE 13 24 7 13 1007.3 1006.9 1.0
20/04:30pm 32.7 37.7 26.0 68 4.8 N 11 19 6 10 1007.1 1006.7 0.0
20/04:00pm 32.3 35.4 23.5 59 6.1 NW 13 19 7 10 1006.5 1006.1 0.0
20/03:30pm 31.9 33.9 22.3 56 6.6 NNW 15 22 8 12 1006.4 1006.0 0.0
20/03:00pm 31.8 33.6 21.9 55 6.7 NNW 15 22 8 12 1006.5 1006.1 0.0
20/02:30pm 32.4 33.9 21.3 52 7.5 WNW 15 20 8 11 1007.0 1006.6 0.0
20/02:00pm 32.8 35.6 22.3 54 7.2 WNW 11 15 6 8 1007.2 1006.8 0.0
20/01:30pm 32.0 35.2 23.0 59 6.2 NW 11 15 6 8 1007.7 1007.3 0.0
20/01:00pm 32.3 35.9 23.0 58 6.4 WNW 9 15 5 8 1008.2 1007.8 0.0
20/12:30pm 31.7 35.0 23.8 63 5.5 WNW 13 19 7 10 1008.6 1008.2 0.0
20/12:00pm 31.6 35.8 23.4 61 5.7 WSW 7 15 4 8 1008.9 1008.5 0.0
20/11:30am 30.8 34.7 22.9 62 5.4 WNW 7 13 4 7 1009.2 1008.8 0.0
20/11:00am 30.3 34.4 23.0 65 5.0 WSW 6 9 3 5 1009.5 1009.1 0.0
20/10:30am 29.4 33.5 22.9 68 4.5 SW 6 9 3 5 1009.8 1009.4 11.4
20/10:00am 28.4 32.5 22.9 72 3.8 SW 6 9 3 5 1009.9 1009.5 11.4
20/09:30am 27.6 31.8 22.5 74 3.5 WSW 4 7 2 4 1009.8 1009.4 11.4
20/09:00am 26.9 31.1 23.4 81 2.4 W 7 9 4 5 1009.9 1009.5 11.4
20/08:30am 26.2 31.0 24.4 90 1.2 WSW 7 9 4 5 1009.8 1009.4 11.4
20/08:00am 24.8 30.8 24.3 97 0.3 CALM 0 6 0 3 1009.4 1009.0 11.4
20/07:30am 24.0 29.8 24.0 100 0.0 CALM 0 0 0 0 1009.1 1008.7 11.4
20/07:00am 23.9 29.6 23.7 99 0.1 CALM 0 0 0 0 1008.8 1008.4 11.4
20/06:30am 24.2 30.0 23.9 98 0.2 CALM 0 0 0 0 1008.2 1007.8 11.4
20/06:00am 24.3 30.1 24.0 98 0.2 CALM 0 6 0 3 1007.9 1007.5 11.4
20/05:30am 24.6 30.7 24.4 99 0.1 CALM 0 0 0 0 1007.7 1007.3 11.4
20/05:00am 24.6 30.8 24.6 100 0.0 CALM 0 0 0 0 1007.5 1007.1 11.4
20/04:30am 24.6 30.1 24.6 100 0.0 W 4 7 2 4 1007.5 1007.1 11.4
20/04:00am 24.9 30.2 24.9 100 0.0 SW 6 9 3 5 1007.6 1007.2 11.4
20/03:30am 25.0 30.3 25.0 100 0.0 SW 6 7 3 4 1007.8 1007.4 11.4
20/03:00am 25.1 30.3 25.1 100 0.0 SW 7 11 4 6 1007.9 1007.5 11.4
20/02:30am 25.3 31.2 25.3 100 0.0 S 4 7 2 4 1008.2 1007.8 11.4
20/02:00am 25.4 31.0 25.4 100 0.0 SSW 6 7 3 4 1008.3 1007.9 11.4
20/01:30am 25.5 30.9 25.5 100 0.0 SSW 7 11 4 6 1008.5 1008.1 11.4
20/01:00am 25.7 31.5 25.7 100 0.0 SW 6 7 3 4 1008.7 1008.3 11.4
20/12:30am 25.9 31.6 25.9 100 0.0 SW 7 7 4 4 1009.1 1008.7 11.4
20/12:00am 26.0 32.9 25.7 98 0.2 CALM 0 0 0 0 1009.4 1009.0 11.4
 
Date/Time
CST
Temp
°C
App
Temp
°C
Dew
Point
°C
Rel
Hum
%
Delta-T
°C
Wind Press
QNH
hPa
Press
MSL
hPa
Rain since
9am
mm
Dir  Spd
km/h
Gust
km/h
Spd
kts
Gust
kts
19/11:30pm 26.3 32.3 26.0 98 0.2 SW 6 7 3 4 1009.6 1009.2 11.4
19/11:00pm 26.3 32.6 26.0 98 0.2 SSW 4 6 2 3 1009.7 1009.3 11.4
19/10:30pm 26.7 34.1 26.4 98 0.2 CALM 0 6 0 3 1009.6 1009.2 11.4
19/10:00pm 26.6 33.9 26.3 98 0.2 CALM 0 0 0 0 1009.1 1008.7 11.4
19/09:44pm 26.7 33.9 26.2 97 0.4 CALM 0 0 0 0 1009.0 1008.6 11.4
19/09:30pm 26.7 33.9 26.2 97 0.4 CALM 0 0 0 0 1008.8 1008.4 11.4
19/09:00pm 27.0 33.4 26.1 95 0.6 SSW 4 7 2 4 1008.4 1008.0 11.4
19/08:55pm 27.2 33.2 26.1 94 0.8 SSW 6 7 3 4 1008.3 1007.9 11.4
19/08:30pm 27.0 33.3 26.0 94 0.7 WNW 4 7 2 4 1007.7 1007.3 11.4
19/08:00pm 27.2 33.0 26.0 93 0.8 NW 7 9 4 5 1007.7 1007.3 11.4
19/07:30pm 27.6 33.6 26.0 91 1.1 NW 6 9 3 5 1007.6 1007.2 11.4
19/07:01pm 27.8 34.6 25.6 88 1.6 CALM 0 4 0 2 1007.7 1007.3 11.4
19/07:00pm 27.8 34.6 25.6 88 1.6 CALM 0 0 0 0 1007.7 1007.3 11.4
19/06:30pm 27.9 34.4 25.1 85 2.0 CALM 0 7 0 4 1007.5 1007.1 11.4
19/06:25pm 27.9 34.0 25.1 85 2.0 W 2 7 1 4 1007.4 1007.0 11.4
19/06:00pm 28.0 32.6 24.8 83 2.2 W 9 13 5 7 1006.9 1006.5 11.4
19/05:30pm 28.1 31.8 23.9 78 2.9 SW 11 15 6 8 1006.9 1006.5 11.4
19/05:00pm 28.2 31.8 25.0 83 2.2 WSW 15 20 8 11 1007.0 1006.6 11.2
19/04:40pm 28.1 31.5 25.3 85 2.0 W 17 22 9 12 1007.2 1006.8 11.2
19/04:30pm 28.3 32.7 25.7 86 1.8 WSW 13 19 7 10 1007.4 1007.0 11.2
19/04:00pm 28.1 33.2 25.5 86 1.8 WSW 9 17 5 9 1007.6 1007.2 11.2
19/03:40pm 28.2 32.9 25.0 83 2.2 SW 9 15 5 8 1007.7 1007.3 11.2
19/03:30pm 28.2 32.7 25.2 84 2.1 SW 11 15 6 8 1007.8 1007.4 11.2
19/03:00pm 27.9 30.2 24.1 80 2.6 W 19 26 10 14 1007.6 1007.2 11.2
19/02:30pm 27.3 31.6 23.7 81 2.5 W 7 11 4 6 1007.7 1007.3 11.2
19/02:00pm 27.4 31.1 24.5 84 2.0 W 13 17 7 9 1008.3 1007.9 11.2
19/01:30pm 26.8 29.7 23.1 80 2.5 NNW 13 22 7 12 1009.2 1008.8 11.2
19/01:00pm 26.2 30.3 23.9 87 1.6 NNW 9 13 5 7 1009.4 1009.0 11.2
19/12:30pm 26.8 29.9 22.8 79 2.7 NNW 11 15 6 8 1010.0 1009.6 11.0
19/12:00pm 27.0 28.7 22.4 76 3.1 NW 17 24 9 13 1010.2 1009.8 11.0
19/11:52am 26.5 28.2 21.7 75 3.2 NW 15 20 8 11 1010.3 1009.9 11.0
19/11:30am 27.7 33.0 25.9 90 1.3 WNW 9 20 5 11 1010.6 1010.2 9.4
19/11:24am 28.6 33.7 26.2 87 1.7 W 11 20 6 11 1010.8 1010.4 2.8
19/11:00am 30.4 34.6 25.9 77 3.2 SW 15 24 8 13 1010.8 1010.4 0.0
19/10:48am 29.7 33.2 25.4 78 3.0 SW 17 22 9 12 1010.8 1010.4 0.0
19/10:30am 29.4 32.6 25.6 80 2.7 WSW 19 28 10 15 1010.5 1010.1 0.0
19/10:00am 29.4 32.5 25.4 79 2.8 WSW 19 28 10 15 1010.1 1009.7 0.0
19/09:30am 29.0 32.5 25.4 81 2.5 W 17 28 9 15 1009.8 1009.4 0.0
19/09:26am 28.9 32.1 25.5 82 2.4 W 19 28 10 15 1009.7 1009.3 0.0
19/09:00am 28.7 32.6 25.5 83 2.3 W 15 24 8 13 1009.7 1009.3 0.0
19/08:30am 28.3 32.2 25.5 85 2.0 WSW 15 22 8 12 1009.6 1009.2 0.0
19/08:00am 28.1 32.2 25.7 87 1.7 W 15 22 8 12 1009.0 1008.6 0.0
19/07:30am 27.9 32.1 25.9 89 1.4 W 15 22 8 12 1008.5 1008.1 0.0
19/07:00am 27.8 31.2 25.8 89 1.4 W 19 28 10 15 1008.0 1007.6 0.0
19/06:30am 27.6 32.2 26.0 91 1.1 W 13 20 7 11 1008.1 1007.7 0.0
19/06:00am 27.0 32.3 25.2 90 1.3 WSW 7 11 4 6 1008.0 1007.6 0.0
19/05:30am 27.1 31.4 24.9 88 1.5 WSW 11 15 6 8 1008.0 1007.6 0.0
19/05:00am 27.1 31.4 24.9 88 1.5 W 11 17 6 9 1007.9 1007.5 0.0
19/04:30am 26.6 30.8 24.8 90 1.3 W 11 15 6 8 1007.5 1007.1 0.0
19/04:00am 26.3 30.6 24.3 89 1.4 W 9 15 5 8 1007.7 1007.3 0.0
19/03:30am 26.0 30.0 23.7 87 1.6 W 9 11 5 6 1007.8 1007.4 0.0
19/03:00am 26.1 30.2 23.2 84 2.0 WSW 7 9 4 5 1008.0 1007.6 0.0
19/02:30am 26.2 30.4 23.1 83 2.1 W 6 11 3 6 1008.7 1008.3 0.0
19/02:00am 26.3 29.9 23.0 82 2.2 S 9 13 5 7 1009.5 1009.1 0.0
19/01:30am 26.8 31.6 24.5 87 1.6 SSW 7 11 4 6 1009.5 1009.1 0.0
19/01:00am 26.9 31.3 24.4 86 1.7 WSW 9 13 5 7 1009.6 1009.2 0.0
19/12:30am 26.7 29.6 23.2 81 2.4 W 13 17 7 9 1009.7 1009.3 0.0
19/12:00am 26.4 28.7 22.0 77 3.0 WSW 13 17 7 9 1009.9 1009.5 0.0
 
Date/Time
CST
Temp
°C
App
Temp
°C
Dew
Point
°C
Rel
Hum
%
Delta-T
°C
Wind Press
QNH
hPa
Press
MSL
hPa
Rain since
9am
mm
Dir  Spd
km/h
Gust
km/h
Spd
kts
Gust
kts
18/11:30pm 26.3 29.0 21.3 74 3.3 SW 9 11 5 6 1009.9 1009.5 0.0
18/11:00pm 26.2 28.8 21.2 74 3.3 W 9 13 5 7 1009.7 1009.3 0.0
18/10:30pm 26.3 30.7 21.3 74 3.3 CALM 0 0 0 0 1009.6 1009.2 0.0
18/10:00pm 26.9 29.4 21.0 70 3.9 S 9 13 5 7 1009.6 1009.2 0.0
18/09:30pm 27.9 29.5 21.4 67 4.3 SW 15 20 8 11 1009.5 1009.1 0.0
18/09:00pm 28.4 30.0 21.4 66 4.7 W 15 24 8 13 1009.1 1008.7 0.0
18/08:30pm 28.4 31.0 24.6 80 2.7 WSW 19 32 10 17 1009.2 1008.8 0.0
18/08:00pm 28.4 31.1 24.2 78 2.9 W 17 28 9 15 1008.9 1008.5 0.0
18/07:30pm 28.6 30.7 23.7 75 3.4 W 19 26 10 14 1008.7 1008.3 0.0
18/07:00pm 29.1 30.7 23.3 71 4.0 W 20 32 11 17 1008.4 1008.0 0.0
18/06:30pm 30.3 31.9 23.2 65 4.9 W 20 30 11 16 1008.2 1007.8 0.0
18/06:00pm 30.7 32.3 22.8 62 5.4 W 19 26 10 14 1007.7 1007.3 0.0
18/05:30pm 30.6 31.9 22.7 62 5.4 W 20 28 11 15 1007.7 1007.3 0.0
18/05:00pm 31.0 33.0 23.6 64 5.1 W 19 24 10 13 1007.8 1007.4 0.0
18/04:30pm 31.4 33.3 23.5 63 5.5 W 19 28 10 15 1008.0 1007.6 0.0
18/04:00pm 31.4 32.5 22.4 59 6.1 W 20 28 11 15 1008.3 1007.9 0.0
18/03:30pm 31.5 33.2 23.1 61 5.8 WNW 19 30 10 16 1008.6 1008.2 0.0
18/03:00pm 31.3 32.6 22.6 60 6.0 WNW 20 28 11 15 1008.7 1008.3 0.0
18/02:30pm 31.5 32.5 22.2 57 6.3 WNW 20 28 11 15 1008.8 1008.4 0.0
18/02:00pm 31.2 32.3 21.9 57 6.3 W 19 26 10 14 1009.4 1009.0 0.0
18/01:30pm 31.0 32.1 22.3 60 5.9 W 20 28 11 15 1009.8 1009.4 0.0
18/01:00pm 31.1 32.8 22.4 60 5.9 WSW 17 26 9 14 1010.5 1010.1 0.0
18/12:30pm 30.6 32.9 22.7 62 5.4 WSW 15 20 8 11 1011.2 1010.8 0.0
18/12:00pm 30.5 32.4 22.7 63 5.3 WSW 17 26 9 14 1011.1 1010.7 0.0
18/11:30am 29.9 31.0 22.3 63 5.2 W 20 28 11 15 1011.1 1010.7 0.0
18/11:00am 29.6 30.9 22.3 65 5.0 WSW 19 32 10 17 1011.2 1010.8 0.0
18/10:30am 29.3 30.7 22.5 67 4.6 WSW 19 28 10 15 1011.3 1010.9 0.0
18/10:00am 29.1 31.4 23.5 72 3.9 WSW 17 26 9 14 1011.3 1010.9 0.0
18/09:30am 28.6 31.0 23.7 75 3.4 WSW 17 28 9 15 1011.4 1011.0 0.0
18/09:00am 28.0 30.4 23.6 77 3.0 WSW 17 24 9 13 1011.0 1010.6 0.0
18/08:30am 27.4 31.4 23.8 81 2.5 SSW 9 13 5 7 1011.3 1010.9 0.0
18/08:00am 26.2 31.0 24.1 88 1.4 SSE 6 7 3 4 1011.2 1010.8 0.0
18/07:30am 25.9 30.3 23.8 88 1.4 S 7 9 4 5 1010.9 1010.5 0.0
18/07:00am 26.1 30.5 23.4 85 1.8 SW 6 9 3 5 1010.9 1010.5 0.0
18/06:30am 26.2 30.2 23.1 83 2.1 SW 7 9 4 5 1010.7 1010.3 0.0
18/06:00am 26.5 30.1 23.0 81 2.4 WSW 9 11 5 6 1010.5 1010.1 0.0
18/05:30am 26.5 30.2 23.2 82 2.3 WSW 9 13 5 7 1010.3 1009.9 0.0

Other Formats:

Comma delimited format used in spreadsheet applications
http://www.bom.gov.au/fwo/IDD60801/IDD60801.95101.axf

JavaScript Object Notation format (JSON) in row-major order
http://www.bom.gov.au/fwo/IDD60801/IDD60801.95101.json